Time,TemperatureF,DewpointF,PressureIn,WindDirection,WindDirectionDegrees,WindSpeedMPH,WindSpeedGustMPH,Humidity,HourlyPrecipIn,Conditions,Clouds,dailyrainin,SoftwareType,DateUTC
2013-01-18 00:00:00,31.6,29.0,30.32,ESE,121,0.0,5.0,90,0.00,,---,1.59,VWS V14.00,2013-01-18 05:00:00,
2013-01-18 00:01:00,31.6,29.0,30.32,East,94,2.0,5.0,90,0.00,,---,1.59,VWS V14.00,2013-01-18 05:01:00,
2013-01-18 00:03:00,31.6,29.0,30.32,East,94,0.0,5.0,90,0.00,,---,1.59,VWS V14.00,2013-01-18 05:03:00,
2013-01-18 00:08:00,31.5,28.9,30.33,South,178,0.0,1.0,90,0.00,,---,0.00,VWS V14.00,2013-01-18 05:08:00,
2013-01-18 00:13:00,31.5,28.9,30.34,South,178,0.0,1.0,90,0.00,,---,0.00,VWS V14.00,2013-01-18 05:13:00,
2013-01-18 00:18:00,31.3,28.7,30.34,SE,140,0.0,4.0,90,0.00,,---,0.00,VWS V14.00,2013-01-18 05:18:00,
2013-01-18 00:23:00,31.2,28.6,30.34,ENE,65,0.0,4.0,90,0.00,,---,0.00,VWS V14.00,2013-01-18 05:23:00,
2013-01-18 00:28:00,31.0,28.4,30.34,NNW,346,0.0,4.0,90,0.00,,---,0.00,VWS V14.00,2013-01-18 05:28:00,
2013-01-18 00:33:00,31.0,28.4,30.35,SE,130,0.0,4.0,90,0.00,,---,0.00,VWS V14.00,2013-01-18 05:33:00,
2013-01-18 00:38:00,30.9,28.3,30.35,East,95,0.0,0.0,90,0.00,,---,0.00,VWS V14.00,2013-01-18 05:38:00,
2013-01-18 00:43:00,30.8,28.0,30.35,ESE,121,1.0,3.0,89,0.00,,---,0.00,VWS V14.00,2013-01-18 05:43:00,
2013-01-18 00:48:00,30.7,27.9,30.35,SE,125,0.0,4.0,89,0.00,,---,0.00,VWS V14.00,2013-01-18 05:48:00,
2013-01-18 00:53:00,30.7,27.9,30.36,NE,42,2.0,5.0,89,0.00,,---,0.00,VWS V14.00,2013-01-18 05:53:00,
2013-01-18 00:58:00,30.6,27.2,30.36,ENE,63,0.0,5.0,87,0.00,,---,0.00,VWS V14.00,2013-01-18 05:58:00,
2013-01-18 01:03:00,30.6,27.2,30.36,SE,126,0.0,5.0,87,0.00,,---,0.00,VWS V14.00,2013-01-18 06:03:00,
2013-01-18 01:08:00,30.6,26.9,30.37,ESE,114,0.0,2.0,86,0.00,,---,0.00,VWS V14.00,2013-01-18 06:08:00,
2013-01-18 01:13:00,30.6,26.9,30.37,ESE,114,1.0,2.0,86,0.00,,---,0.00,VWS V14.00,2013-01-18 06:13:00,
2013-01-18 01:18:00,30.6,27.5,30.37,ESE,114,2.0,2.0,88,0.00,,---,0.00,VWS V14.00,2013-01-18 06:18:00,
2013-01-18 01:23:00,30.5,27.4,30.37,SW,228,0.0,3.0,88,0.00,,---,0.00,VWS V14.00,2013-01-18 06:23:00,
2013-01-18 01:28:00,30.3,27.2,30.37,SW,227,0.0,3.0,88,0.00,,---,0.00,VWS V14.00,2013-01-18 06:28:00,
2013-01-18 01:33:00,30.1,27.0,30.37,SW,227,0.0,3.0,88,0.00,,---,0.00,VWS V14.00,2013-01-18 06:33:00,
2013-01-18 01:38:00,30.0,26.6,30.37,SW,227,1.0,1.0,87,0.00,,---,0.00,VWS V14.00,2013-01-18 06:38:00,
2013-01-18 01:43:00,29.9,26.5,30.37,SW,226,0.0,1.0,87,0.00,,---,0.00,VWS V14.00,2013-01-18 06:43:00,
2013-01-18 01:48:00,29.9,26.5,30.38,West,265,0.0,2.0,87,0.00,,---,0.00,VWS V14.00,2013-01-18 06:48:00,
2013-01-18 01:53:00,29.8,26.4,30.38,West,267,0.0,2.0,87,0.00,,---,0.00,VWS V14.00,2013-01-18 06:53:00,
2013-01-18 01:58:00,29.7,26.3,30.38,West,266,0.0,2.0,87,0.00,,---,0.00,VWS V14.00,2013-01-18 06:58:00,
2013-01-18 02:03:00,29.7,26.3,30.38,WNW,288,0.0,3.0,87,0.00,,---,0.00,VWS V14.00,2013-01-18 07:03:00,
2013-01-18 02:08:00,29.6,26.2,30.38,WNW,288,0.0,0.0,87,0.00,,---,0.00,VWS V14.00,2013-01-18 07:08:00,
2013-01-18 02:13:00,29.5,26.4,30.38,WNW,298,0.0,3.0,88,0.00,,---,0.00,VWS V14.00,2013-01-18 07:13:00,
2013-01-18 02:18:00,29.4,25.7,30.39,WSW,250,2.0,3.0,86,0.00,,---,0.00,VWS V14.00,2013-01-18 07:18:00,
2013-01-18 02:23:00,29.4,25.5,30.38,South,175,0.0,3.0,85,0.00,,---,0.00,VWS V14.00,2013-01-18 07:23:00,
2013-01-18 02:28:00,29.4,25.7,30.39,South,175,0.0,3.0,86,0.00,,---,0.00,VWS V14.00,2013-01-18 07:28:00,
2013-01-18 02:33:00,29.3,25.4,30.39,South,175,0.0,3.0,85,0.00,,---,0.00,VWS V14.00,2013-01-18 07:33:00,
2013-01-18 02:38:00,29.3,25.6,30.39,South,175,0.0,1.0,86,0.00,,---,0.00,VWS V14.00,2013-01-18 07:38:00,
2013-01-18 02:43:00,29.2,25.3,30.39,South,175,0.0,2.0,85,0.00,,---,0.00,VWS V14.00,2013-01-18 07:43:00,
2013-01-18 02:48:00,29.2,25.5,30.39,South,175,0.0,2.0,86,0.00,,---,0.00,VWS V14.00,2013-01-18 07:48:00,
2013-01-18 02:53:00,29.1,25.2,30.39,SSE,164,0.0,4.0,85,0.00,,---,0.00,VWS V14.00,2013-01-18 07:53:00,
2013-01-18 02:58:00,29.2,25.0,30.39,SSE,167,0.0,4.0,84,0.00,,---,0.00,VWS V14.00,2013-01-18 07:58:00,
2013-01-18 03:03:00,29.2,25.3,30.40,SSE,167,0.0,4.0,85,0.00,,---,0.00,VWS V14.00,2013-01-18 08:03:00,
2013-01-18 03:08:00,29.2,25.3,30.40,East,80,3.0,3.0,85,0.00,,---,0.00,VWS V14.00,2013-01-18 08:08:00,
2013-01-18 03:13:00,29.2,25.5,30.40,South,171,3.0,4.0,86,0.00,,---,0.00,VWS V14.00,2013-01-18 08:13:00,
2013-01-18 03:18:00,29.3,24.5,30.40,SSE,147,0.0,5.0,82,0.00,,---,0.00,VWS V14.00,2013-01-18 08:18:00,
2013-01-18 03:23:00,29.6,25.4,30.40,South,184,0.0,5.0,84,0.00,,---,0.00,VWS V14.00,2013-01-18 08:23:00,
2013-01-18 03:28:00,29.5,25.6,30.40,South,183,0.0,5.0,85,0.00,,---,0.00,VWS V14.00,2013-01-18 08:28:00,
2013-01-18 03:33:00,29.4,24.9,30.40,SSE,155,2.0,5.0,83,0.00,,---,0.00,VWS V14.00,2013-01-18 08:33:00,
2013-01-18 03:38:00,29.7,24.6,30.40,SSE,163,2.0,4.0,81,0.00,,---,0.00,VWS V14.00,2013-01-18 08:38:00,
2013-01-18 03:43:00,29.7,25.2,30.40,SSE,163,1.0,4.0,83,0.00,,---,0.00,VWS V14.00,2013-01-18 08:43:00,
2013-01-18 03:48:00,29.6,25.6,30.40,SSE,163,0.0,4.0,85,0.00,,---,0.00,VWS V14.00,2013-01-18 08:48:00,
2013-01-18 03:53:00,29.5,25.3,30.39,South,170,1.0,6.0,84,0.00,,---,0.00,VWS V14.00,2013-01-18 08:53:00,
2013-01-18 03:58:00,29.5,25.0,30.39,WSW,238,0.0,6.0,83,0.00,,---,0.00,VWS V14.00,2013-01-18 08:58:00,
2013-01-18 04:03:00,29.4,25.2,30.39,ESE,115,1.0,6.0,84,0.00,,---,0.00,VWS V14.00,2013-01-18 09:03:00,
2013-01-18 04:08:00,29.4,24.3,30.41,North,5,1.0,5.0,81,0.00,,---,0.00,VWS V14.00,2013-01-18 09:08:00,
2013-01-18 04:13:00,29.6,24.5,30.41,NE,51,1.0,5.0,81,0.00,,---,0.00,VWS V14.00,2013-01-18 09:13:00,
2013-01-18 04:18:00,29.8,24.1,30.41,East,80,1.0,7.0,79,0.00,,---,0.00,VWS V14.00,2013-01-18 09:18:00,
2013-01-18 04:23:00,30.0,24.3,30.41,SSE,150,1.0,7.0,79,0.00,,---,0.00,VWS V14.00,2013-01-18 09:23:00,
2013-01-18 04:28:00,30.1,24.7,30.41,East,83,4.0,7.0,80,0.00,,---,0.00,VWS V14.00,2013-01-18 09:28:00,
2013-01-18 04:33:00,29.9,24.2,30.41,SSW,209,0.0,7.0,79,0.00,,---,0.00,VWS V14.00,2013-01-18 09:33:00,
2013-01-18 04:38:00,29.9,24.5,30.41,NW,320,0.0,0.0,80,0.00,,---,0.00,VWS V14.00,2013-01-18 09:38:00,
2013-01-18 04:43:00,29.9,24.5,30.40,North,355,2.0,6.0,80,0.00,,---,0.00,VWS V14.00,2013-01-18 09:43:00,
2013-01-18 04:48:00,29.9,23.9,30.40,NNW,341,0.0,6.0,78,0.00,,---,0.00,VWS V14.00,2013-01-18 09:48:00,
2013-01-18 04:53:00,29.8,24.4,30.40,NNW,341,0.0,6.0,80,0.00,,---,0.00,VWS V14.00,2013-01-18 09:53:00,
2013-01-18 04:58:00,29.6,24.5,30.40,South,178,0.0,6.0,81,0.00,,---,0.00,VWS V14.00,2013-01-18 09:58:00,
2013-01-18 05:03:00,29.6,23.9,30.40,SSE,167,0.0,6.0,79,0.00,,---,0.00,VWS V14.00,2013-01-18 10:03:00,
2013-01-18 05:08:00,29.6,23.9,30.40,SW,219,0.0,2.0,79,0.00,,---,0.00,VWS V14.00,2013-01-18 10:08:00,
2013-01-18 05:13:00,29.5,24.4,30.41,SW,218,0.0,2.0,81,0.00,,---,0.00,VWS V14.00,2013-01-18 10:13:00,
2013-01-18 05:18:00,29.5,24.7,30.41,SW,228,0.0,5.0,82,0.00,,---,0.00,VWS V14.00,2013-01-18 10:18:00,
2013-01-18 05:23:00,29.3,24.8,30.41,SW,227,0.0,5.0,83,0.00,,---,0.00,VWS V14.00,2013-01-18 10:23:00,
2013-01-18 05:28:00,29.1,24.6,30.41,SW,228,0.0,5.0,83,0.00,,---,0.00,VWS V14.00,2013-01-18 10:28:00,
2013-01-18 05:33:00,28.8,24.3,30.42,SW,229,0.0,5.0,83,0.00,,---,0.00,VWS V14.00,2013-01-18 10:33:00,
2013-01-18 05:38:00,28.8,24.3,30.42,South,184,0.0,0.0,83,0.00,,---,0.00,VWS V14.00,2013-01-18 10:38:00,
2013-01-18 05:43:00,28.7,23.9,30.42,South,183,0.0,3.0,82,0.00,,---,0.00,VWS V14.00,2013-01-18 10:43:00,
2013-01-18 05:48:00,28.7,23.9,30.41,WSW,238,1.0,3.0,82,0.00,,---,0.00,VWS V14.00,2013-01-18 10:48:00,
2013-01-18 05:53:00,28.8,24.0,30.41,SE,133,1.0,4.0,82,0.00,,---,0.00,VWS V14.00,2013-01-18 10:53:00,
2013-01-18 05:58:00,28.8,24.0,30.41,NNE,32,0.0,4.0,82,0.00,,---,0.00,VWS V14.00,2013-01-18 10:58:00,
2013-01-18 06:03:00,28.8,24.3,30.41,NNE,33,1.0,4.0,83,0.00,,---,0.00,VWS V14.00,2013-01-18 11:03:00,
2013-01-18 06:08:00,28.7,23.9,30.41,NNE,33,0.0,0.0,82,0.00,,---,0.00,VWS V14.00,2013-01-18 11:08:00,
2013-01-18 06:13:00,28.6,23.8,30.41,NNE,33,1.0,2.0,82,0.00,,---,0.00,VWS V14.00,2013-01-18 11:13:00,
2013-01-18 06:18:00,28.5,23.7,30.41,West,269,0.0,3.0,82,0.00,,---,0.00,VWS V14.00,2013-01-18 11:18:00,
2013-01-18 06:23:00,28.5,23.7,30.41,SSE,161,4.0,4.0,82,0.00,,---,0.00,VWS V14.00,2013-01-18 11:23:00,
2013-01-18 06:28:00,28.8,23.4,30.41,South,183,0.0,6.0,80,0.00,,---,0.00,VWS V14.00,2013-01-18 11:28:00,
2013-01-18 06:33:00,28.8,23.7,30.42,West,277,1.0,6.0,81,0.00,,---,0.00,VWS V14.00,2013-01-18 11:33:00,
2013-01-18 06:38:00,29.0,22.4,30.42,WSW,237,0.0,2.0,76,0.00,,---,0.00,VWS V14.00,2013-01-18 11:38:00,
2013-01-18 06:43:00,29.3,22.1,30.42,SE,139,0.0,3.0,74,0.00,,---,0.00,VWS V14.00,2013-01-18 11:43:00,
2013-01-18 06:48:00,30.0,20.7,30.43,SSW,210,0.0,7.0,68,0.00,,---,0.00,VWS V14.00,2013-01-18 11:48:00,
2013-01-18 06:53:00,30.7,20.7,30.43,South,184,0.0,7.0,66,0.00,,---,0.00,VWS V14.00,2013-01-18 11:53:00,
2013-01-18 06:58:00,30.9,22.3,30.43,South,173,0.0,7.0,70,0.00,,---,0.00,VWS V14.00,2013-01-18 11:58:00,
2013-01-18 07:03:00,30.7,23.1,30.43,South,173,0.0,7.0,73,0.00,,---,0.00,VWS V14.00,2013-01-18 12:03:00,
2013-01-18 07:08:00,30.5,23.2,30.44,South,178,1.0,1.0,74,0.00,,---,0.00,VWS V14.00,2013-01-18 12:08:00,
2013-01-18 07:13:00,30.1,21.9,30.45,SSW,205,0.0,3.0,71,0.00,,---,0.00,VWS V14.00,2013-01-18 12:13:00,
2013-01-18 07:18:00,30.1,19.8,30.45,SSW,213,0.0,3.0,65,0.00,,---,0.00,VWS V14.00,2013-01-18 12:18:00,
2013-01-18 07:23:00,30.2,21.9,30.45,SSW,213,0.0,3.0,71,0.00,,---,0.00,VWS V14.00,2013-01-18 12:23:00,
2013-01-18 07:28:00,30.1,21.9,30.45,SSW,213,0.0,3.0,71,0.00,,---,0.00,VWS V14.00,2013-01-18 12:28:00,
2013-01-18 07:33:00,29.9,22.0,30.45,SSW,211,0.0,3.0,72,0.00,,---,0.00,VWS V14.00,2013-01-18 12:33:00,
2013-01-18 07:38:00,29.8,21.9,30.46,SSW,213,0.0,0.0,72,0.00,,---,0.00,VWS V14.00,2013-01-18 12:38:00,
2013-01-18 07:43:00,29.7,21.5,30.46,SSW,212,0.0,1.0,71,0.00,,---,0.00,VWS V14.00,2013-01-18 12:43:00,
2013-01-18 07:48:00,29.6,21.4,30.46,SSW,212,0.0,1.0,71,0.00,,---,0.00,VWS V14.00,2013-01-18 12:48:00,
2013-01-18 07:53:00,29.6,20.4,30.47,SSW,211,0.0,1.0,68,0.00,,---,0.00,VWS V14.00,2013-01-18 12:53:00,
2013-01-18 07:58:00,29.6,19.6,30.47,SSW,212,0.0,1.0,66,0.00,,---,0.00,VWS V14.00,2013-01-18 12:58:00,
2013-01-18 08:03:00,29.7,19.8,30.47,SSW,212,0.0,1.0,66,0.00,,---,0.00,VWS V14.00,2013-01-18 13:03:00,
2013-01-18 08:08:00,29.8,20.2,30.48,SSW,211,0.0,0.0,67,0.00,,---,0.00,VWS V14.00,2013-01-18 13:08:00,
2013-01-18 08:13:00,29.9,20.6,30.48,SSW,211,0.0,0.0,68,0.00,,---,0.00,VWS V14.00,2013-01-18 13:13:00,
2013-01-18 08:18:00,30.1,20.8,30.48,SSW,212,0.0,0.0,68,0.00,,---,0.00,VWS V14.00,2013-01-18 13:18:00,
2013-01-18 08:23:00,30.2,20.2,30.48,SSW,212,0.0,1.0,66,0.00,,---,0.00,VWS V14.00,2013-01-18 13:23:00,
2013-01-18 08:28:00,30.4,20.8,30.49,SSW,212,0.0,1.0,67,0.00,,---,0.00,VWS V14.00,2013-01-18 13:28:00,
2013-01-18 08:33:00,30.6,21.3,30.49,SSW,211,0.0,1.0,68,0.00,,---,0.00,VWS V14.00,2013-01-18 13:33:00,
2013-01-18 08:38:00,31.1,21.1,30.49,SSW,211,0.0,0.0,66,0.00,,---,0.00,VWS V14.00,2013-01-18 13:38:00,
2013-01-18 08:43:00,31.6,21.2,30.49,SSW,212,0.0,0.0,65,0.00,,---,0.00,VWS V14.00,2013-01-18 13:43:00,
2013-01-18 08:48:00,31.9,21.9,30.49,SSW,211,0.0,1.0,66,0.00,,---,0.00,VWS V14.00,2013-01-18 13:48:00,
2013-01-18 08:53:00,32.1,23.8,30.49,SSW,211,0.0,1.0,71,0.00,,---,0.00,VWS V14.00,2013-01-18 13:53:00,
2013-01-18 08:58:00,32.2,24.9,30.50,SSW,212,0.0,1.0,74,0.00,,---,0.00,VWS V14.00,2013-01-18 13:58:00,
2013-01-18 09:03:00,32.4,25.0,30.50,SSW,211,0.0,2.0,74,0.00,,---,0.00,VWS V14.00,2013-01-18 14:03:00,
2013-01-18 09:08:00,32.7,25.0,30.50,SSW,210,0.0,0.0,73,0.00,,---,0.00,VWS V14.00,2013-01-18 14:08:00,
2013-01-18 09:13:00,32.9,26.2,30.50,SSW,211,0.0,1.0,76,0.00,,---,0.00,VWS V14.00,2013-01-18 14:13:00,
2013-01-18 09:18:00,33.0,26.3,30.51,SSW,211,0.0,2.0,76,0.00,,---,0.00,VWS V14.00,2013-01-18 14:18:00,
2013-01-18 09:23:00,32.8,25.8,30.51,SSW,208,1.0,3.0,75,0.00,,---,0.00,VWS V14.00,2013-01-18 14:23:00,
2013-01-18 09:28:00,32.7,25.7,30.52,SSW,207,0.0,3.0,75,0.00,,---,0.00,VWS V14.00,2013-01-18 14:28:00,
2013-01-18 09:33:00,33.0,25.3,30.52,SSW,207,0.0,3.0,73,0.00,,---,0.00,VWS V14.00,2013-01-18 14:33:00,
2013-01-18 09:38:00,33.6,24.5,30.52,SSW,208,0.0,1.0,69,0.00,,---,0.00,VWS V14.00,2013-01-18 14:38:00,
2013-01-18 09:43:00,34.4,23.9,30.53,SSW,202,2.0,3.0,65,0.00,,---,0.00,VWS V14.00,2013-01-18 14:43:00,
2013-01-18 09:48:00,35.2,25.4,30.52,SSW,202,0.0,3.0,67,0.00,,---,0.00,VWS V14.00,2013-01-18 14:48:00,
2013-01-18 09:53:00,35.9,27.8,30.52,South,190,0.0,4.0,72,0.00,,---,0.00,VWS V14.00,2013-01-18 14:53:00,
2013-01-18 09:58:00,36.6,25.2,30.52,South,190,0.0,4.0,63,0.00,,---,0.00,VWS V14.00,2013-01-18 14:58:00,
2013-01-18 10:03:00,37.0,24.8,30.52,South,173,0.0,5.0,61,0.00,,---,0.00,VWS V14.00,2013-01-18 15:03:00,
2013-01-18 10:08:00,37.7,24.7,30.52,ESE,107,2.0,3.0,59,0.00,,---,0.00,VWS V14.00,2013-01-18 15:08:00,
2013-01-18 10:13:00,38.4,26.9,30.53,ESE,111,2.0,3.0,63,0.00,,---,0.00,VWS V14.00,2013-01-18 15:13:00,
2013-01-18 10:18:00,38.9,25.8,30.52,ESE,111,0.0,3.0,59,0.00,,---,0.00,VWS V14.00,2013-01-18 15:18:00,
2013-01-18 10:23:00,39.5,27.6,30.52,ESE,110,0.0,3.0,62,0.00,,---,0.00,VWS V14.00,2013-01-18 15:23:00,
2013-01-18 10:28:00,40.0,27.2,30.52,ESE,109,2.0,4.0,60,0.00,,---,0.00,VWS V14.00,2013-01-18 15:28:00,
2013-01-18 10:33:00,40.5,27.3,30.52,ESE,105,0.0,4.0,59,0.00,,---,0.00,VWS V14.00,2013-01-18 15:33:00,
2013-01-18 10:38:00,40.6,24.4,30.52,ENE,71,3.0,3.0,52,0.00,,---,0.00,VWS V14.00,2013-01-18 15:38:00,
2013-01-18 10:43:00,40.4,25.1,30.52,ENE,66,5.0,5.0,54,0.00,,---,0.00,VWS V14.00,2013-01-18 15:43:00,
2013-01-18 10:48:00,40.2,24.9,30.53,ENE,76,2.0,5.0,54,0.00,,---,0.00,VWS V14.00,2013-01-18 15:48:00,
2013-01-18 10:53:00,40.5,25.6,30.52,ENE,78,0.0,5.0,55,0.00,,---,0.00,VWS V14.00,2013-01-18 15:53:00,
2013-01-18 10:58:00,40.9,25.1,30.52,ENE,77,3.0,5.0,53,0.00,,---,0.00,VWS V14.00,2013-01-18 15:58:00,
2013-01-18 11:03:00,41.3,29.7,30.52,East,80,1.0,5.0,63,0.00,,---,0.00,VWS V14.00,2013-01-18 16:03:00,
2013-01-18 11:08:00,42.0,30.3,30.52,East,81,3.0,4.0,63,0.00,,---,0.00,VWS V14.00,2013-01-18 16:08:00,
2013-01-18 11:13:00,42.2,26.8,30.52,East,83,1.0,4.0,54,0.00,,---,0.00,VWS V14.00,2013-01-18 16:13:00,
2013-01-18 11:18:00,42.1,28.4,30.52,SE,142,1.0,4.0,58,0.00,,---,0.00,VWS V14.00,2013-01-18 16:18:00,
2013-01-18 11:23:00,42.5,27.5,30.52,SE,141,1.0,4.0,55,0.00,,---,0.00,VWS V14.00,2013-01-18 16:23:00,
2013-01-18 11:28:00,42.7,27.2,30.52,SE,141,1.0,4.0,54,0.00,,---,0.00,VWS V14.00,2013-01-18 16:28:00,
2013-01-18 11:33:00,43.1,28.9,30.52,East,88,1.0,4.0,57,0.00,,---,0.00,VWS V14.00,2013-01-18 16:33:00,
2013-01-18 11:38:00,43.6,27.6,30.52,East,99,3.0,3.0,53,0.00,,---,0.00,VWS V14.00,2013-01-18 16:38:00,
2013-01-18 11:43:00,44.0,26.1,30.52,ENE,76,0.0,4.0,49,0.00,,---,0.00,VWS V14.00,2013-01-18 16:43:00,
2013-01-18 11:48:00,44.3,25.9,30.52,East,80,2.0,4.0,48,0.00,,---,0.00,VWS V14.00,2013-01-18 16:48:00,
2013-01-18 11:53:00,44.7,26.7,30.52,East,87,2.0,4.0,49,0.00,,---,0.00,VWS V14.00,2013-01-18 16:53:00,
2013-01-18 11:58:00,45.4,28.8,30.51,East,98,2.0,4.0,52,0.00,,---,0.00,VWS V14.00,2013-01-18 16:58:00,
2013-01-18 12:03:00,45.6,27.6,30.50,SSE,156,2.0,4.0,49,0.00,,---,0.00,VWS V14.00,2013-01-18 17:03:00,
2013-01-18 12:08:00,45.1,26.6,30.51,ESE,115,0.0,3.0,48,0.00,,---,0.00,VWS V14.00,2013-01-18 17:08:00,
2013-01-18 12:13:00,45.0,28.0,30.51,SE,133,2.0,3.0,51,0.00,,---,0.00,VWS V14.00,2013-01-18 17:13:00,
2013-01-18 12:18:00,45.3,29.6,30.51,East,81,1.0,3.0,54,0.00,,---,0.00,VWS V14.00,2013-01-18 17:18:00,
2013-01-18 12:23:00,45.8,29.2,30.50,SE,142,0.0,3.0,52,0.00,,---,0.00,VWS V14.00,2013-01-18 17:23:00,
2013-01-18 12:28:00,46.1,29.0,30.50,ENE,69,3.0,5.0,51,0.00,,---,0.00,VWS V14.00,2013-01-18 17:28:00,
2013-01-18 12:33:00,46.4,29.3,30.50,NW,322,0.0,5.0,51,0.00,,---,0.00,VWS V14.00,2013-01-18 17:33:00,
2013-01-18 12:38:00,46.6,26.9,30.49,NE,48,0.0,4.0,46,0.00,,---,0.00,VWS V14.00,2013-01-18 17:38:00,
2013-01-18 12:43:00,46.7,26.0,30.49,South,172,0.0,5.0,44,0.00,,---,0.00,VWS V14.00,2013-01-18 17:43:00,
2013-01-18 12:48:00,46.5,25.8,30.49,ENE,77,4.0,5.0,44,0.00,,---,0.00,VWS V14.00,2013-01-18 17:48:00,
2013-01-18 12:53:00,46.5,26.9,30.49,ESE,114,1.0,5.0,46,0.00,,---,0.00,VWS V14.00,2013-01-18 17:53:00,
2013-01-18 12:58:00,47.2,29.5,30.49,SE,133,0.0,5.0,50,0.00,,---,0.00,VWS V14.00,2013-01-18 17:58:00,
2013-01-18 13:03:00,47.6,27.3,30.49,SE,134,0.0,5.0,45,0.00,,---,0.00,VWS V14.00,2013-01-18 18:03:00,
2013-01-18 13:08:00,47.7,26.9,30.49,ESE,119,3.0,5.0,44,0.00,,---,0.00,VWS V14.00,2013-01-18 18:08:00,
2013-01-18 13:13:00,47.6,26.8,30.49,East,89,1.0,5.0,44,0.00,,---,0.00,VWS V14.00,2013-01-18 18:13:00,
2013-01-18 13:18:00,47.4,26.6,30.49,SSE,165,0.0,5.0,44,0.00,,---,0.00,VWS V14.00,2013-01-18 18:18:00,
2013-01-18 13:22:00,47.8,26.4,30.48,SE,128,0.0,5.0,43,0.00,,---,0.00,VWS V14.00,2013-01-18 18:22:00,
2013-01-18 13:28:00,48.0,26.6,30.48,ENE,75,1.0,5.0,43,0.00,,---,0.00,VWS V14.00,2013-01-18 18:28:00,
2013-01-18 13:33:00,47.9,28.1,30.48,SE,134,2.0,5.0,46,0.00,,---,0.00,VWS V14.00,2013-01-18 18:33:00,
2013-01-18 13:38:00,48.4,27.5,30.48,ENE,71,0.0,2.0,44,0.00,,---,0.00,VWS V14.00,2013-01-18 18:38:00,
2013-01-18 13:43:00,48.9,30.6,30.48,South,173,1.0,5.0,49,0.00,,---,0.00,VWS V14.00,2013-01-18 18:43:00,
2013-01-18 13:48:00,49.2,28.2,30.48,NE,38,0.0,5.0,44,0.00,,---,0.00,VWS V14.00,2013-01-18 18:48:00,
2013-01-18 13:53:00,49.8,27.6,30.47,ENE,72,2.0,5.0,42,0.00,,---,0.00,VWS V14.00,2013-01-18 18:53:00,
2013-01-18 13:58:00,49.7,30.3,30.47,SE,146,0.0,5.0,47,0.00,,---,0.00,VWS V14.00,2013-01-18 18:58:00,
2013-01-18 14:03:00,49.4,27.3,30.47,South,173,0.0,6.0,42,0.00,,---,0.00,VWS V14.00,2013-01-18 19:03:00,
2013-01-18 14:08:00,49.5,26.8,30.48,SSW,208,0.0,1.0,41,0.00,,---,0.00,VWS V14.00,2013-01-18 19:08:00,
2013-01-18 14:12:00,49.8,29.3,30.48,SE,125,0.0,3.0,45,0.00,,---,0.00,VWS V14.00,2013-01-18 19:12:00,
2013-01-18 14:17:00,50.6,30.1,30.47,SSE,147,1.0,3.0,45,0.00,,---,0.00,VWS V14.00,2013-01-18 19:17:00,
2013-01-18 14:23:00,50.9,28.6,30.47,East,83,2.0,3.0,42,0.00,,---,0.00,VWS V14.00,2013-01-18 19:23:00,
2013-01-18 14:28:00,50.5,27.1,30.47,East,83,0.0,4.0,40,0.00,,---,0.00,VWS V14.00,2013-01-18 19:28:00,
2013-01-18 14:32:00,50.4,28.2,30.48,ESE,113,1.0,5.0,42,0.00,,---,0.00,VWS V14.00,2013-01-18 19:32:00,
2013-01-18 14:37:00,49.7,29.2,30.48,SSE,166,0.0,1.0,45,0.00,,---,0.00,VWS V14.00,2013-01-18 19:37:00,
2013-01-18 14:42:00,49.7,29.8,30.48,ENE,75,3.0,5.0,46,0.00,,---,0.00,VWS V14.00,2013-01-18 19:42:00,
2013-01-18 14:47:00,49.8,32.9,30.47,East,91,0.0,5.0,52,0.00,,---,0.00,VWS V14.00,2013-01-18 19:47:00,
2013-01-18 14:52:00,49.7,28.1,30.48,East,89,0.0,5.0,43,0.00,,---,0.00,VWS V14.00,2013-01-18 19:52:00,
2013-01-18 14:57:00,49.6,28.0,30.48,ENE,71,4.0,6.0,43,0.00,,---,0.00,VWS V14.00,2013-01-18 19:57:00,
2013-01-18 15:02:00,49.6,28.0,30.48,NE,42,5.0,6.0,43,0.00,,---,0.00,VWS V14.00,2013-01-18 20:02:00,
2013-01-18 15:07:00,49.0,26.9,30.48,NNE,32,4.0,6.0,42,0.00,,---,0.00,VWS V14.00,2013-01-18 20:07:00,
2013-01-18 15:12:00,48.6,27.7,30.48,North,5,3.0,7.0,44,0.00,,---,0.00,VWS V14.00,2013-01-18 20:12:00,
2013-01-18 15:17:00,48.8,29.0,30.48,ENE,64,0.0,7.0,46,0.00,,---,0.00,VWS V14.00,2013-01-18 20:17:00,
2013-01-18 15:22:00,48.8,28.4,30.48,SSE,152,2.0,7.0,45,0.00,,---,0.00,VWS V14.00,2013-01-18 20:22:00,
2013-01-18 15:27:00,49.3,29.4,30.48,SSE,153,1.0,7.0,46,0.00,,---,0.00,VWS V14.00,2013-01-18 20:27:00,
2013-01-18 15:32:00,49.4,30.0,30.48,South,172,4.0,7.0,47,0.00,,---,0.00,VWS V14.00,2013-01-18 20:32:00,
2013-01-18 15:37:00,49.4,29.0,30.48,SW,214,0.0,4.0,45,0.00,,---,0.00,VWS V14.00,2013-01-18 20:37:00,
2013-01-18 15:42:00,49.7,30.3,30.48,SSE,168,2.0,4.0,47,0.00,,---,0.00,VWS V14.00,2013-01-18 20:42:00,
2013-01-18 15:47:00,49.4,29.5,30.48,SSE,163,1.0,7.0,46,0.00,,---,0.00,VWS V14.00,2013-01-18 20:47:00,
2013-01-18 15:52:00,49.0,28.0,30.48,South,172,0.0,7.0,44,0.00,,---,0.00,VWS V14.00,2013-01-18 20:52:00,
2013-01-18 15:57:00,49.0,29.1,30.48,South,170,0.0,7.0,46,0.00,,---,0.00,VWS V14.00,2013-01-18 20:57:00,
2013-01-18 16:02:00,48.8,29.5,30.48,SSE,153,5.0,7.0,47,0.00,,---,0.00,VWS V14.00,2013-01-18 21:02:00,
2013-01-18 16:07:00,48.3,29.5,30.48,SSW,197,0.0,0.0,48,0.00,,---,0.00,VWS V14.00,2013-01-18 21:07:00,
2013-01-18 16:12:00,48.4,30.6,30.48,WSW,246,0.0,4.0,50,0.00,,---,0.00,VWS V14.00,2013-01-18 21:12:00,
2013-01-18 16:17:00,48.5,30.7,30.48,WSW,242,0.0,4.0,50,0.00,,---,0.00,VWS V14.00,2013-01-18 21:17:00,
2013-01-18 16:22:00,48.5,32.2,30.48,West,280,2.0,4.0,53,0.00,,---,0.00,VWS V14.00,2013-01-18 21:22:00,
2013-01-18 16:27:00,48.4,31.6,30.48,South,187,0.0,4.0,52,0.00,,---,0.00,VWS V14.00,2013-01-18 21:27:00,
2013-01-18 16:32:00,47.9,31.1,30.48,South,173,1.0,4.0,52,0.00,,---,0.00,VWS V14.00,2013-01-18 21:32:00,
2013-01-18 16:37:00,47.7,32.3,30.48,SSE,167,1.0,1.0,55,0.00,,---,0.00,VWS V14.00,2013-01-18 21:37:00,
2013-01-18 16:42:00,47.5,32.6,30.48,East,80,0.0,3.0,56,0.00,,---,0.00,VWS V14.00,2013-01-18 21:42:00,
2013-01-18 16:47:00,47.1,32.2,30.49,ENE,78,0.0,3.0,56,0.00,,---,0.00,VWS V14.00,2013-01-18 21:47:00,
2013-01-18 16:52:00,46.6,33.0,30.49,ENE,78,0.0,3.0,59,0.00,,---,0.00,VWS V14.00,2013-01-18 21:52:00,
2013-01-18 16:57:00,46.2,32.7,30.49,East,79,1.0,4.0,59,0.00,,---,0.00,VWS V14.00,2013-01-18 21:57:00,
2013-01-18 17:02:00,45.7,33.0,30.49,East,79,0.0,4.0,61,0.00,,---,0.00,VWS V14.00,2013-01-18 22:02:00,
2013-01-18 17:07:00,45.4,32.8,30.50,East,82,1.0,2.0,61,0.00,,---,0.00,VWS V14.00,2013-01-18 22:07:00,
2013-01-18 17:12:00,45.0,32.8,30.50,East,82,0.0,2.0,62,0.00,,---,0.00,VWS V14.00,2013-01-18 22:12:00,
2013-01-18 17:17:00,44.8,33.0,30.50,East,82,0.0,2.0,63,0.00,,---,0.00,VWS V14.00,2013-01-18 22:17:00,
2013-01-18 17:22:00,44.6,33.2,30.50,East,82,0.0,2.0,64,0.00,,---,0.00,VWS V14.00,2013-01-18 22:22:00,
2013-01-18 17:27:00,44.5,33.5,30.50,East,82,0.0,2.0,65,0.00,,---,0.00,VWS V14.00,2013-01-18 22:27:00,
2013-01-18 17:32:00,44.2,33.2,30.50,East,82,0.0,2.0,65,0.00,,---,0.00,VWS V14.00,2013-01-18 22:32:00,
2013-01-18 17:37:00,43.9,33.3,30.50,East,82,0.0,0.0,66,0.00,,---,0.00,VWS V14.00,2013-01-18 22:37:00,
2013-01-18 17:42:00,43.6,33.0,30.50,East,82,0.0,0.0,66,0.00,,---,0.00,VWS V14.00,2013-01-18 22:42:00,
2013-01-18 17:47:00,43.3,33.1,30.50,East,82,0.0,0.0,67,0.00,,---,0.00,VWS V14.00,2013-01-18 22:47:00,
2013-01-18 17:52:00,42.9,32.7,30.50,East,82,0.0,0.0,67,0.00,,---,0.00,VWS V14.00,2013-01-18 22:52:00,
2013-01-18 17:57:00,42.4,32.6,30.51,East,82,0.0,0.0,68,0.00,,---,0.00,VWS V14.00,2013-01-18 22:57:00,
2013-01-18 18:02:00,42.1,32.0,30.51,East,82,0.0,0.0,67,0.00,,---,0.00,VWS V14.00,2013-01-18 23:02:00,
2013-01-18 18:07:00,41.8,31.7,30.51,East,82,0.0,0.0,67,0.00,,---,0.00,VWS V14.00,2013-01-18 23:07:00,
2013-01-18 18:12:00,41.6,31.5,30.51,East,82,0.0,0.0,67,0.00,,---,0.00,VWS V14.00,2013-01-18 23:12:00,
2013-01-18 18:17:00,41.4,31.3,30.51,East,82,0.0,0.0,67,0.00,,---,0.00,VWS V14.00,2013-01-18 23:17:00,
2013-01-18 18:22:00,41.2,31.5,30.51,East,82,0.0,0.0,68,0.00,,---,0.00,VWS V14.00,2013-01-18 23:22:00,
2013-01-18 18:27:00,41.0,31.3,30.51,East,82,0.0,0.0,68,0.00,,---,0.00,VWS V14.00,2013-01-18 23:27:00,
2013-01-18 18:32:00,40.9,31.2,30.51,East,82,0.0,0.0,68,0.00,,---,0.00,VWS V14.00,2013-01-18 23:32:00,
2013-01-18 18:37:00,40.7,31.0,30.51,East,82,0.0,0.0,68,0.00,,---,0.00,VWS V14.00,2013-01-18 23:37:00,
2013-01-18 18:42:00,40.6,30.9,30.52,East,82,0.0,0.0,68,0.00,,---,0.00,VWS V14.00,2013-01-18 23:42:00,
2013-01-18 18:47:00,40.4,30.7,30.52,East,82,0.0,0.0,68,0.00,,---,0.00,VWS V14.00,2013-01-18 23:47:00,
2013-01-18 18:52:00,40.2,30.1,30.53,East,82,0.0,0.0,67,0.00,,---,0.00,VWS V14.00,2013-01-18 23:52:00,
2013-01-18 18:57:00,40.2,30.5,30.52,East,82,0.0,1.0,68,0.00,,---,0.00,VWS V14.00,2013-01-18 23:57:00,
2013-01-18 19:02:00,40.2,30.9,30.52,East,82,0.0,1.0,69,0.00,,---,0.00,VWS V14.00,2013-01-19 00:02:00,
2013-01-18 19:07:00,40.2,30.5,30.52,East,82,0.0,0.0,68,0.00,,---,0.00,VWS V14.00,2013-01-19 00:07:00,
2013-01-18 19:12:00,40.2,30.5,30.53,East,82,0.0,0.0,68,0.00,,---,0.00,VWS V14.00,2013-01-19 00:12:00,
2013-01-18 19:17:00,40.2,30.1,30.53,East,82,0.0,0.0,67,0.00,,---,0.00,VWS V14.00,2013-01-19 00:17:00,
2013-01-18 19:22:00,40.1,30.4,30.52,East,82,0.0,0.0,68,0.00,,---,0.00,VWS V14.00,2013-01-19 00:22:00,
2013-01-18 19:27:00,40.0,30.3,30.52,East,82,0.0,1.0,68,0.00,,---,0.00,VWS V14.00,2013-01-19 00:27:00,
2013-01-18 19:32:00,39.9,30.2,30.52,East,82,0.0,1.0,68,0.00,,---,0.00,VWS V14.00,2013-01-19 00:32:00,
2013-01-18 19:37:00,39.8,30.1,30.52,East,82,0.0,0.0,68,0.00,,---,0.00,VWS V14.00,2013-01-19 00:37:00,
2013-01-18 19:42:00,39.8,30.1,30.52,East,82,0.0,0.0,68,0.00,,---,0.00,VWS V14.00,2013-01-19 00:42:00,
2013-01-18 19:47:00,39.7,29.7,30.52,East,82,0.0,0.0,67,0.00,,---,0.00,VWS V14.00,2013-01-19 00:47:00,
2013-01-18 19:52:00,39.6,29.9,30.52,East,82,0.0,0.0,68,0.00,,---,0.00,VWS V14.00,2013-01-19 00:52:00,
2013-01-18 19:57:00,39.5,29.8,30.52,East,82,0.0,0.0,68,0.00,,---,0.00,VWS V14.00,2013-01-19 00:57:00,
2013-01-18 20:02:00,39.5,29.8,30.52,East,82,0.0,0.0,68,0.00,,---,0.00,VWS V14.00,2013-01-19 01:02:00,
2013-01-18 20:07:00,39.4,29.4,30.52,East,82,0.0,0.0,67,0.00,,---,0.00,VWS V14.00,2013-01-19 01:07:00,
2013-01-18 20:12:00,39.4,29.4,30.52,East,82,0.0,0.0,67,0.00,,---,0.00,VWS V14.00,2013-01-19 01:12:00,
2013-01-18 20:17:00,39.4,29.7,30.52,East,82,0.0,0.0,68,0.00,,---,0.00,VWS V14.00,2013-01-19 01:17:00,
2013-01-18 20:22:00,39.4,30.4,30.52,East,82,0.0,0.0,70,0.00,,---,0.00,VWS V14.00,2013-01-19 01:22:00,
2013-01-18 20:27:00,39.3,30.4,30.52,East,82,0.0,0.0,70,0.00,,---,0.00,VWS V14.00,2013-01-19 01:27:00,
2013-01-18 20:32:00,39.3,30.7,30.52,East,82,0.0,0.0,71,0.00,,---,0.00,VWS V14.00,2013-01-19 01:32:00,
2013-01-18 20:37:00,39.1,29.8,30.52,East,82,0.0,0.0,69,0.00,,---,0.00,VWS V14.00,2013-01-19 01:37:00,
2013-01-18 20:42:00,38.9,30.0,30.52,East,82,0.0,0.0,70,0.00,,---,0.00,VWS V14.00,2013-01-19 01:42:00,
2013-01-18 20:47:00,38.7,29.8,30.52,East,82,0.0,0.0,70,0.00,,---,0.00,VWS V14.00,2013-01-19 01:47:00,
2013-01-18 20:52:00,38.5,29.6,30.52,East,82,0.0,0.0,70,0.00,,---,0.00,VWS V14.00,2013-01-19 01:52:00,
2013-01-18 20:57:00,38.4,29.8,30.52,East,82,0.0,0.0,71,0.00,,---,0.00,VWS V14.00,2013-01-19 01:57:00,
2013-01-18 21:02:00,38.2,30.0,30.52,East,82,0.0,0.0,72,0.00,,---,0.00,VWS V14.00,2013-01-19 02:02:00,
2013-01-18 21:07:00,38.2,30.7,30.51,East,82,0.0,0.0,74,0.00,,---,0.00,VWS V14.00,2013-01-19 02:07:00,
2013-01-18 21:12:00,38.1,30.6,30.51,East,82,0.0,0.0,74,0.00,,---,0.00,VWS V14.00,2013-01-19 02:12:00,
2013-01-18 21:17:00,38.0,30.5,30.51,East,82,0.0,0.0,74,0.00,,---,0.00,VWS V14.00,2013-01-19 02:17:00,
2013-01-18 21:22:00,37.8,30.6,30.51,East,82,0.0,0.0,75,0.00,,---,0.00,VWS V14.00,2013-01-19 02:22:00,
2013-01-18 21:27:00,37.7,30.8,30.51,East,82,0.0,0.0,76,0.00,,---,0.00,VWS V14.00,2013-01-19 02:27:00,
2013-01-18 21:32:00,37.5,30.6,30.51,East,82,0.0,0.0,76,0.00,,---,0.00,VWS V14.00,2013-01-19 02:32:00,
2013-01-18 21:37:00,37.4,30.9,30.52,East,82,0.0,0.0,77,0.00,,---,0.00,VWS V14.00,2013-01-19 02:37:00,
2013-01-18 21:42:00,37.3,30.8,30.52,East,82,0.0,0.0,77,0.00,,---,0.00,VWS V14.00,2013-01-19 02:42:00,
2013-01-18 21:47:00,37.1,30.6,30.52,East,82,0.0,0.0,77,0.00,,---,0.00,VWS V14.00,2013-01-19 02:47:00,
2013-01-18 21:52:00,37.0,30.5,30.52,East,82,0.0,0.0,77,0.00,,---,0.00,VWS V14.00,2013-01-19 02:52:00,
2013-01-18 21:57:00,36.9,30.4,30.52,East,82,0.0,0.0,77,0.00,,---,0.00,VWS V14.00,2013-01-19 02:57:00,
2013-01-18 22:02:00,36.8,30.3,30.52,East,82,0.0,0.0,77,0.00,,---,0.00,VWS V14.00,2013-01-19 03:02:00,
2013-01-18 22:07:00,36.5,30.3,30.50,East,82,0.0,0.0,78,0.00,,---,0.00,VWS V14.00,2013-01-19 03:07:00,
2013-01-18 22:12:00,36.3,30.4,30.50,East,82,0.0,0.0,79,0.00,,---,0.00,VWS V14.00,2013-01-19 03:12:00,
2013-01-18 22:17:00,36.1,30.5,30.50,East,82,0.0,0.0,80,0.00,,---,0.00,VWS V14.00,2013-01-19 03:17:00,
2013-01-18 22:22:00,36.1,30.8,30.50,East,81,0.0,2.0,81,0.00,,---,0.00,VWS V14.00,2013-01-19 03:22:00,
2013-01-18 22:27:00,36.1,31.1,30.50,East,80,0.0,2.0,82,0.00,,---,0.00,VWS V14.00,2013-01-19 03:27:00,
2013-01-18 22:32:00,36.1,31.1,30.50,East,81,0.0,2.0,82,0.00,,---,0.00,VWS V14.00,2013-01-19 03:32:00,
2013-01-18 22:37:00,36.0,31.0,30.50,East,81,0.0,0.0,82,0.00,,---,0.00,VWS V14.00,2013-01-19 03:37:00,
2013-01-18 22:42:00,36.0,31.0,30.50,East,80,0.0,0.0,82,0.00,,---,0.00,VWS V14.00,2013-01-19 03:42:00,
2013-01-18 22:47:00,35.7,30.5,30.50,East,80,0.0,0.0,81,0.00,,---,0.00,VWS V14.00,2013-01-19 03:47:00,
2013-01-18 22:52:00,35.5,30.3,30.50,East,81,0.0,0.0,81,0.00,,---,0.00,VWS V14.00,2013-01-19 03:52:00,
2013-01-18 22:57:00,35.4,30.2,30.50,East,81,0.0,0.0,81,0.00,,---,0.00,VWS V14.00,2013-01-19 03:57:00,
2013-01-18 23:02:00,35.3,30.4,30.50,East,81,0.0,0.0,82,0.00,,---,0.00,VWS V14.00,2013-01-19 04:02:00,
2013-01-18 23:07:00,35.1,30.2,30.49,East,81,0.0,0.0,82,0.00,,---,0.00,VWS V14.00,2013-01-19 04:07:00,
2013-01-18 23:12:00,35.0,30.1,30.49,East,80,0.0,0.0,82,0.00,,---,0.00,VWS V14.00,2013-01-19 04:12:00,
2013-01-18 23:17:00,34.8,30.2,30.49,East,81,0.0,0.0,83,0.00,,---,0.00,VWS V14.00,2013-01-19 04:17:00,
2013-01-18 23:22:00,34.7,30.4,30.49,East,81,0.0,0.0,84,0.00,,---,0.00,VWS V14.00,2013-01-19 04:22:00,
2013-01-18 23:27:00,34.4,30.1,30.50,East,81,0.0,0.0,84,0.00,,---,0.00,VWS V14.00,2013-01-19 04:27:00,
2013-01-18 23:32:00,34.4,30.1,30.50,East,80,0.0,0.0,84,0.00,,---,0.00,VWS V14.00,2013-01-19 04:32:00,
2013-01-18 23:37:00,34.4,30.4,30.50,East,81,0.0,0.0,85,0.00,,---,0.00,VWS V14.00,2013-01-19 04:37:00,
2013-01-18 23:42:00,34.1,30.1,30.49,East,81,0.0,0.0,85,0.00,,---,0.00,VWS V14.00,2013-01-19 04:42:00,
2013-01-18 23:47:00,33.9,29.9,30.49,East,80,0.0,0.0,85,0.00,,---,0.00,VWS V14.00,2013-01-19 04:47:00,
2013-01-18 23:52:00,33.7,29.7,30.49,East,80,0.0,0.0,85,0.00,,---,0.00,VWS V14.00,2013-01-19 04:52:00,
2013-01-18 23:57:00,33.6,29.6,30.49,East,81,0.0,0.0,85,0.00,,---,0.00,VWS V14.00,2013-01-19 04:57:00,